Главная страница
METAR-TAF:

METAR-TAF

Аэропорты :

Вашингтон, Пенсильвания, США

широта: 40-08N, долгота: 080-17W, высота над уровнем моря: 361 м

Текущие метеонаблюдения

Эта сводка был подготовлена 24 минут назад, в 13:56 UTC
Ветер 7 Узел от западный-юго-западный
Температура 12°C
Влажность 67%
Давление 1017 hPa
Видимость: 16.1 км
Отдельные облака на высоте 2400 фута

METAR: KAFJ 241356Z AUTO 25007KT 10SM SCT024 12/06 A3002 RMK AO2 SLP164 T01170056

Время: 10:20 (14:20 UTC)


TAF: отсутствует

Метеонаблюдения и прогнозы для более 4000 аэропортов (сводки METAR и TAF).

Имеющиеся станции представлены на карте желтыми и красными точками.

Чтобы увидеть название станции, наведите на нее мышь.

Затем щелкните, чтобы увидеть метеонаблюдения и метеопрогнозы.

Управление картой: чтобы увеличить масштаб, щелкните зеленые кнопки с черным крестиком; чтобы уменьшить масштаб, щелкните зеленую кнопку с тире; для просмотра соседних карт щелкайте зеленые стрелки.


METAR-TAF: